Uniopolis, Ohio
Current Conditions -  °F | °C
As of 7:53 AM on Thursday 30 Oct 2014 (Local Time) from KAOH Reporting Station
Overcast Overcast  
Wind Chill: 42°   Ceiling: 4200
Heat Index: 42°   Visibility: 10mi
Dew Point: 36°   Wind: 0mph
Humidity: 79%   Direction: NA
Pressure: 30.14"   Gusts: NA
Location:  40.6°N, 84.09°W
Report Text: KAOH 301153Z AUTO 00000KT 10SM OVC042 06/02 A3014 RMK AO2 SLP210 T00560022 10067 20050 51007
Loading
Personal Weather Stations






























Interactive Weather Map
Tropical Storm Tracking
New forecast layout! Learn more

10-Day Weather Forecast

Advertisements
Track Severe Weather on mobile